Falcon Nostos — A8ZR6 — position and weather

sailwx.info

Track history (hours):
 
Tides and Currents Weather Stations Pressure Air Temp Water Temp Dewpoint Dewpoint Depression Visibility Wind Speed Wind Dir Waves Ship Positions

Falcon Nostos

Last reported at 2018-Apr-06 04:31 UTC. Time now 2018-Apr-20 02:57 UTC.
Position N 51°22' W 005°59'.
Warning: this ship's position is 13 days out of date.

Length 182 m; draft 10.4 m.

Type: Ship (hazmat cat D). MMSI: 636015281.

Date/timePositionNaut miles runAvg speedWind from/ knotsBaromVisibWave heightAir tempDewpointWater temp
2018-Apr-06 04:31N 51°22' W 005°59'0 9.5
2018-Apr-06 04:28N 51°23' W 005°58'5 9.9
2018-Apr-06 03:59N 51°25' W 005°51'810.3
2018-Apr-06 03:15N 51°29' W 005°41'310.7
2018-Apr-06 03:00N 51°30' W 005°38'610.9
2018-Apr-06 02:29N 51°33' W 005°30'511.1
2018-Apr-06 02:01N 51°36' W 005°23'611.1
2018-Apr-06 01:30N 51°38' W 005°15'5 9.2
2018-Apr-06 00:59N 51°41' W 005°09'5 9.8
2018-Apr-06 00:30N 51°42' W 005°01'1 1.6
2018-Apr-05 23:56N 51°42' W 004°60'0 0.0
2018-Apr-05 23:26N 51°42' W 004°60'0 0.0
2018-Apr-05 22:59N 51°42' W 004°60'0 0.0
2018-Apr-05 22:23N 51°42' W 004°60'0 0.0
2018-Apr-05 21:53N 51°42' W 004°60'0 0.0
2018-Apr-05 21:19N 51°42' W 004°60'0 0.0
2018-Apr-05 20:40N 51°42' W 004°60'0 0.0
2018-Apr-05 20:27N 51°42' W 004°60'0 0.0
2018-Apr-05 19:52N 51°42' W 004°60'0 0.0
2018-Apr-05 19:24N 51°42' W 004°60'0 0.0
2018-Apr-05 19:00N 51°42' W 004°60'0 0.0
2018-Apr-05 18:24N 51°42' W 004°60'0 0.0
2018-Apr-05 17:57N 51°42' W 004°60'0 0.0
2018-Apr-05 17:30N 51°42' W 004°60'0 0.0
2018-Apr-05 16:59N 51°42' W 004°60'0 0.0
2018-Apr-05 16:26N 51°42' W 004°60'0 0.0
2018-Apr-05 15:59N 51°42' W 004°60'0 0.0
2018-Apr-05 15:29N 51°42' W 004°60'0 0.0
2018-Apr-05 14:59N 51°42' W 004°60'0 0.0
2018-Apr-05 14:25N 51°42' W 004°60'0 0.0
2018-Apr-05 13:55N 51°42' W 004°60'0 0.0
2018-Apr-05 13:28N 51°42' W 004°60'0 0.0
2018-Apr-05 12:58N 51°42' W 004°60'0 0.0
2018-Apr-05 12:24N 51°42' W 004°60'0 0.0
2018-Apr-05 12:00N 51°42' W 004°60'0 0.0
2018-Apr-05 11:27N 51°42' W 004°60'0 0.0
2018-Apr-05 11:00N 51°42' W 004°60'0 0.0
2018-Apr-05 10:30N 51°42' W 004°60'0 0.0
2018-Apr-05 09:59N 51°42' W 004°60'0 0.0
2018-Apr-05 09:29N 51°42' W 004°60'0 0.0
2018-Apr-05 08:59N 51°42' W 004°60'0 0.0
2018-Apr-05 08:26N 51°42' W 004°60'0 0.0
2018-Apr-05 07:56N 51°42' W 004°60'0 0.0
2018-Apr-05 07:22N 51°42' W 004°60'0 0.0
2018-Apr-05 06:58N 51°42' W 004°60'0 0.0
2018-Apr-05 06:28N 51°42' W 004°60'0 0.0
2018-Apr-05 05:55N 51°42' W 004°60'0 0.0
2018-Apr-05 05:30N 51°42' W 004°60'0 0.0
2018-Apr-05 04:54N 51°42' W 004°60'0 0.0
2018-Apr-05 04:30N 51°42' W 004°60'0 0.0
2018-Apr-05 04:00N 51°42' W 004°60'0 0.0
2018-Apr-05 03:24N 51°42' W 004°60'0 0.0
2018-Apr-05 02:59N 51°42' W 004°60'0 0.0
2018-Apr-05 02:29N 51°42' W 004°60'0 0.0
2018-Apr-05 01:56N 51°42' W 004°60'0 0.0
2018-Apr-05 01:23N 51°42' W 004°60'0 0.0
2018-Apr-05 00:40N 51°42' W 004°60'0 0.0
2018-Apr-05 00:28N 51°42' W 004°60'0 0.0
2018-Apr-04 23:58N 51°42' W 004°60'0 0.0
2018-Apr-04 23:28N 51°42' W 004°60'0 0.0
2018-Apr-04 22:58N 51°42' W 004°60'0 0.0
2018-Apr-04 22:09N 51°42' W 004°60'0 0.0
2018-Apr-04 21:57N 51°42' W 004°60'0 0.0
2018-Apr-04 21:30N 51°42' W 004°60'0 0.0
2018-Apr-04 21:00N 51°42' W 004°60'0 0.0
2018-Apr-04 20:30N 51°42' W 004°60'0 0.0
2018-Apr-04 19:53N 51°42' W 004°60'0 0.0
2018-Apr-04 19:29N 51°42' W 004°60'0 0.0
2018-Apr-04 18:59N 51°42' W 004°60'0 0.0
2018-Apr-04 18:29N 51°42' W 004°60'0 0.0
2018-Apr-04 17:58N 51°42' W 004°60'0 0.0
2018-Apr-04 17:22N 51°42' W 004°60'0 0.0
2018-Apr-04 16:58N 51°42' W 004°60'0 0.0
2018-Apr-04 16:28N 51°42' W 004°60'0 0.0
2018-Apr-04 15:58N 51°42' W 004°60'0 0.0
2018-Apr-04 15:30N 51°42' W 004°60'0 0.0
2018-Apr-04 14:57N 51°42' W 004°60'0 0.0
2018-Apr-04 14:30N 51°42' W 004°60'0 0.0
2018-Apr-04 14:00N 51°42' W 004°60'0 0.0
2018-Apr-04 13:30N 51°42' W 004°60'0 0.0
2018-Apr-04 12:59N 51°42' W 004°60'0 0.0
2018-Apr-04 12:29N 51°42' W 004°60'0 0.0
2018-Apr-04 11:59N 51°42' W 004°60'0 0.0
2018-Apr-04 11:29N 51°42' W 004°60'0 0.0
2018-Apr-04 10:58N 51°42' W 004°60'0 0.0
2018-Apr-04 10:22N 51°42' W 004°60'0 0.0
2018-Apr-04 09:55N 51°42' W 004°60'0 0.0
2018-Apr-04 09:25N 51°42' W 004°60'0 0.0
2018-Apr-04 08:52N 51°42' W 004°60'0 0.0
2018-Apr-04 08:30N 51°42' W 004°60'0 0.0
2018-Apr-04 07:57N 51°42' W 004°60'0 0.0
2018-Apr-04 07:30N 51°42' W 004°60'0 0.0
2018-Apr-04 07:00N 51°42' W 004°60'0 0.0
2018-Apr-04 06:30N 51°42' W 004°60'0 0.0
2018-Apr-04 05:56N 51°42' W 004°60'0 0.0
2018-Apr-04 05:29N 51°42' W 004°60'0 0.0
2018-Apr-04 04:59N 51°42' W 004°60'0 0.0
2018-Apr-04 04:20N 51°42' W 004°60'0 0.0
2018-Apr-04 03:58N 51°42' W 004°60'0 0.0
2018-Apr-04 03:25N 51°42' W 004°60'0 0.0
2018-Apr-04 02:55N 51°42' W 004°60'0 0.0
2018-Apr-04 02:19N 51°42' W 004°60'0 0.0
2018-Apr-04 01:58N 51°42' W 004°60'0 0.0
2018-Apr-04 01:30N 51°42' W 004°60'0 0.0
2018-Apr-04 01:00N 51°42' W 004°60'0 0.0
2018-Apr-04 00:30N 51°42' W 004°60'0 0.0
2018-Apr-04 00:00N 51°42' W 004°60'0 0.0
2018-Apr-03 23:23N 51°42' W 004°60'0 0.0
2018-Apr-03 22:59N 51°42' W 004°60'0 0.0
2018-Apr-03 22:29N 51°42' W 004°60'0 0.0
2018-Apr-03 21:56N 51°42' W 004°60'0 0.0
2018-Apr-03 21:29N 51°42' W 004°60'0 0.0
2018-Apr-03 20:58N 51°42' W 004°60'0 0.0
2018-Apr-03 20:19N 51°42' W 004°60'0 0.0
2018-Apr-03 19:58N 51°42' W 004°60'0 0.0
2018-Apr-03 19:28N 51°42' W 004°60'0 0.0
2018-Apr-03 18:55N 51°42' W 004°60'0 0.0
2018-Apr-03 18:30N 51°42' W 004°60'0 0.0
2018-Apr-03 18:00N 51°42' W 004°60'0 0.0
2018-Apr-03 17:30N 51°42' W 004°60'0 0.0
2018-Apr-03 16:57N 51°42' W 004°60'0 0.0
2018-Apr-03 16:29N 51°42' W 004°60'0 0.0
2018-Apr-03 15:59N 51°42' W 004°60'0 0.0
2018-Apr-03 15:29N 51°42' W 004°60'0 0.0
2018-Apr-03 14:59N 51°42' W 004°60'0 0.0
2018-Apr-03 14:29N 51°42' W 004°60'0 0.0
2018-Apr-03 13:58N 51°42' W 004°60'0 0.0
2018-Apr-03 13:25N 51°42' W 004°60'0 0.0
2018-Apr-03 12:52N 51°42' W 004°60'0 0.0
2018-Apr-03 12:28N 51°42' W 004°60'0 0.0
2018-Apr-03 12:00N 51°42' W 004°60'0 0.0
2018-Apr-03 11:30N 51°42' W 004°60'0 0.0
2018-Apr-03 11:00N 51°42' W 004°60'0 0.0
2018-Apr-03 10:27N 51°42' W 004°60'0 0.0
2018-Apr-03 09:54N 51°42' W 004°60'0 0.0
2018-Apr-03 09:23N 51°42' W 004°60'0 0.0
2018-Apr-03 08:56N 51°42' W 004°60'0 0.0
2018-Apr-03 08:29N 51°42' W 004°60'0 0.0
2018-Apr-03 07:59N 51°42' W 004°60'0 0.0
2018-Apr-03 07:29N 51°42' W 004°60'0 0.0
2018-Apr-03 06:57N 51°42' W 004°60'0 0.0
2018-Apr-03 06:19N 51°42' W 004°60'0 0.0
2018-Apr-03 05:58N 51°42' W 004°60'0 0.0
2018-Apr-03 05:28N 51°42' W 004°60'0 0.0
2018-Apr-03 05:00N 51°42' W 004°60'0 0.1
2018-Apr-03 04:30N 51°42' W 004°60'1 1.9
2018-Apr-03 04:01N 51°42' W 005°01'1 1.5
2018-Apr-03 03:26N 51°42' W 005°03'0 0.0
2018-Apr-03 02:53N 51°42' W 005°03'0 0.0
2018-Apr-03 02:29N 51°42' W 005°03'0 0.0
2018-Apr-03 01:55N 51°42' W 005°03'0 0.0
2018-Apr-03 01:28N 51°42' W 005°03'0 0.0
2018-Apr-03 00:58N 51°42' W 005°03'0 0.0
2018-Apr-03 00:28N 51°42' W 005°03'0 0.0
2018-Apr-02 23:58N 51°42' W 005°03'0 0.0
2018-Apr-02 23:18N 51°42' W 005°03'0 0.0
2018-Apr-02 23:00N 51°42' W 005°03'0 0.0
2018-Apr-02 22:27N 51°42' W 005°03'0 0.0
2018-Apr-02 21:57N 51°42' W 005°03'0 0.0
2018-Apr-02 21:23N 51°42' W 005°03'0 0.0
2018-Apr-02 20:58N 51°42' W 005°03'0 0.0
2018-Apr-02 20:29N 51°42' W 005°03'0 0.0
2018-Apr-02 19:59N 51°42' W 005°03'0 0.0
2018-Apr-02 19:29N 51°42' W 005°03'0 0.0
2018-Apr-02 18:52N 51°42' W 005°03'0 0.0
2018-Apr-02 18:19N 51°42' W 005°03'0 0.0
2018-Apr-02 17:55N 51°42' W 005°03'0 0.0
2018-Apr-02 17:25N 51°42' W 005°03'0 0.0
2018-Apr-02 16:57N 51°42' W 005°03'0 0.0
2018-Apr-02 16:27N 51°42' W 005°03'0 0.0
2018-Apr-02 16:00N 51°42' W 005°03'0 0.0
2018-Apr-02 15:27N 51°42' W 005°03'0 0.0
2018-Apr-02 15:00N 51°42' W 005°03'0 0.0
2018-Apr-02 14:29N 51°42' W 005°03'0 0.0
2018-Apr-02 13:59N 51°42' W 005°03'0 0.0
2018-Apr-02 13:29N 51°42' W 005°03'0 0.0
2018-Apr-02 12:59N 51°42' W 005°03'0 0.0
2018-Apr-02 12:29N 51°42' W 005°03'0 0.0
2018-Apr-02 11:58N 51°42' W 005°03'0 0.0
2018-Apr-02 11:22N 51°42' W 005°03'0 0.0
2018-Apr-02 10:55N 51°42' W 005°03'0 0.0
2018-Apr-02 10:28N 51°42' W 005°03'0 0.0
2018-Apr-02 10:00N 51°42' W 005°03'0 0.0
2018-Apr-02 09:30N 51°42' W 005°03'0 0.0
2018-Apr-02 09:00N 51°42' W 005°03'0 0.0
2018-Apr-02 08:30N 51°42' W 005°03'0 0.0
2018-Apr-02 08:00N 51°42' W 005°03'0 0.0
2018-Apr-02 07:29N 51°42' W 005°03'0 0.0
2018-Apr-02 06:59N 51°42' W 005°03'0 0.0
2018-Apr-02 06:29N 51°42' W 005°03'0 0.0
2018-Apr-02 05:59N 51°42' W 005°03'0 0.0
2018-Apr-02 05:26N 51°42' W 005°03'0 0.0
2018-Apr-02 04:55N 51°42' W 005°03'0 0.0
2018-Apr-02 04:28N 51°42' W 005°03'0 0.0
2018-Apr-02 03:55N 51°42' W 005°03'0 0.0
2018-Apr-02 03:30N 51°42' W 005°03'0 0.7
2018-Apr-02 02:58N 51°42' W 005°03'0 0.0
2018-Apr-02 02:28N 51°42' W 005°03'0 0.0
2018-Apr-02 01:44N 51°42' W 005°03'0 0.0
2018-Apr-02 01:26N 51°42' W 005°03'0 0.0
2018-Apr-02 00:59N 51°42' W 005°03'0 0.0
2018-Apr-02 00:26N 51°42' W 005°03'0 0.0
2018-Apr-01 23:58N 51°42' W 005°03'0 0.0
2018-Apr-01 23:25N 51°42' W 005°03'0 0.0
2018-Apr-01 22:52N 51°42' W 005°03'0 0.0
2018-Apr-01 22:28N 51°42' W 005°03'0 0.0
2018-Apr-01 21:57N 51°42' W 005°03'0 0.0
2018-Apr-01 21:30N 51°42' W 005°03'0 0.0
2018-Apr-01 20:54N 51°42' W 005°03'0 0.0
2018-Apr-01 20:30N 51°42' W 005°03'0 0.0
2018-Apr-01 20:00N 51°42' W 005°03'0 0.0
2018-Apr-01 19:29N 51°42' W 005°03'0 0.0
2018-Apr-01 18:59N 51°42' W 005°03'0 0.0
2018-Apr-01 18:23N 51°42' W 005°03'0 0.0
2018-Apr-01 17:59N 51°42' W 005°03'0 0.0
2018-Apr-01 17:26N 51°42' W 005°03'0 0.0
2018-Apr-01 16:52N 51°42' W 005°03'0 0.0
2018-Apr-01 16:28N 51°42' W 005°03'0 0.0
2018-Apr-01 15:52N 51°42' W 005°03'0 0.0
2018-Apr-01 15:25N 51°42' W 005°03'0 0.0
2018-Apr-01 14:57N 51°42' W 005°03'0 0.0
2018-Apr-01 14:30N 51°42' W 005°03'0 0.0
2018-Apr-01 14:00N 51°42' W 005°03'0 0.0
2018-Apr-01 13:30N 51°42' W 005°03'0 0.0
2018-Apr-01 12:57N 51°42' W 005°03'0 0.0
2018-Apr-01 12:29N 51°42' W 005°03'0 0.0
2018-Apr-01 11:56N 51°42' W 005°03'0 0.0
2018-Apr-01 11:26N 51°42' W 005°03'0 0.0
2018-Apr-01 10:56N 51°42' W 005°03'0 0.0
2018-Apr-01 10:26N 51°42' W 005°03'0 0.0
2018-Apr-01 09:58N 51°42' W 005°03'0 0.0
2018-Apr-01 09:28N 51°42' W 005°03'0 0.0
2018-Apr-01 08:49N 51°42' W 005°03'0 0.0
2018-Apr-01 08:28N 51°42' W 005°03'0 0.0
2018-Apr-01 07:57N 51°42' W 005°03'0 0.0
2018-Apr-01 07:30N 51°42' W 005°03'0 0.0
2018-Apr-01 06:54N 51°42' W 005°03'0 0.0
2018-Apr-01 06:30N 51°42' W 005°03'0 0.0
2018-Apr-01 05:53N 51°42' W 005°03'0 0.0
2018-Apr-01 05:29N 51°42' W 005°03'0 0.0
2018-Apr-01 04:59N 51°42' W 005°03'0 0.0
2018-Apr-01 04:23N 51°42' W 005°03'0 0.0
2018-Apr-01 03:53N 51°42' W 005°03'0 0.0
2018-Apr-01 03:25N 51°42' W 005°03'0 0.0
2018-Apr-01 02:55N 51°42' W 005°03'0 0.0
2018-Apr-01 02:28N 51°42' W 005°03'0 0.0
2018-Apr-01 01:58N 51°42' W 005°03'0 0.0
2018-Apr-01 01:28N 51°42' W 005°03'0 0.0
2018-Apr-01 00:57N 51°42' W 005°03'0 0.0
2018-Apr-01 00:12N 51°42' W 005°03'0 0.0
2018-Apr-01 00:00N 51°42' W 005°03'0 0.0
2018-Mar-31 23:30N 51°42' W 005°03'0 0.0
2018-Mar-31 22:57N 51°42' W 005°03'0 0.0
2018-Mar-31 22:26N 51°42' W 005°03'0 0.0
2018-Mar-31 21:35N 51°42' W 005°03'0 0.1
2018-Mar-31 21:29N 51°42' W 005°03'0 0.0
2018-Mar-31 20:59N 51°42' W 005°03'0 0.0
2018-Mar-31 20:22N 51°42' W 005°03'0 0.0
2018-Mar-31 19:55N 51°42' W 005°03'0 0.0
2018-Mar-31 19:28N 51°42' W 005°03'0 0.0
2018-Mar-31 18:55N 51°42' W 005°03'0 0.0
2018-Mar-31 18:25N 51°42' W 005°03'0 0.0
2018-Mar-31 17:54N 51°42' W 005°03'0 0.0
2018-Mar-31 17:27N 51°42' W 005°03'0 0.0
2018-Mar-31 17:00N 51°42' W 005°03'0 0.0
2018-Mar-31 16:30N 51°42' W 005°03'0 0.0
2018-Mar-31 15:57N 51°42' W 005°03'0 0.0
2018-Mar-31 15:29N 51°42' W 005°03'0 0.0
2018-Mar-31 14:56N 51°42' W 005°03'0 0.0
2018-Mar-31 14:25N 51°42' W 005°03'0 0.0
2018-Mar-31 13:56N 51°42' W 005°03'0 0.0
2018-Mar-31 13:25N 51°42' W 005°03'0 0.0
2018-Mar-31 12:52N 51°42' W 005°03'0 0.0
2018-Mar-31 12:28N 51°42' W 005°03'0 0.0
2018-Mar-31 11:58N 51°42' W 005°03'0 0.0
2018-Mar-31 11:28N 51°42' W 005°03'0 0.0
2018-Mar-31 11:00N 51°42' W 005°03'0 0.0
2018-Mar-31 10:30N 51°42' W 005°03'0 0.0
2018-Mar-31 09:57N 51°42' W 005°03'0 0.0
2018-Mar-31 09:27N 51°42' W 005°03'0 0.0
2018-Mar-31 08:59N 51°42' W 005°03'0 0.0
2018-Mar-31 08:29N 51°42' W 005°03'0 0.0
2018-Mar-31 07:59N 51°42' W 005°03'0 0.0
2018-Mar-31 07:26N 51°42' W 005°03'0 0.0
2018-Mar-31 06:59N 51°42' W 005°03'0 0.0
2018-Mar-31 06:28N 51°42' W 005°03'0 0.0
2018-Mar-31 05:55N 51°42' W 005°03'0 0.0
2018-Mar-31 05:28N 51°42' W 005°03'0 0.0
2018-Mar-31 04:58N 51°42' W 005°03'0 0.0
2018-Mar-31 04:27N 51°42' W 005°03'0 0.0
2018-Mar-31 04:00N 51°42' W 005°03'0 0.0
2018-Mar-31 03:30N 51°42' W 005°03'0 0.0
2018-Mar-31 03:00N 51°42' W 005°03'0 0.0
2018-Mar-31 02:30N 51°42' W 005°03'0 0.0
2018-Mar-31 01:59N 51°42' W 005°03'0 0.0
2018-Mar-31 01:26N 51°42' W 005°03'0 0.0
2018-Mar-31 00:59N 51°42' W 005°03'0 0.0
2018-Mar-31 00:29N 51°42' W 005°03'0 0.0
2018-Mar-30 23:59N 51°42' W 005°03'0 0.0
2018-Mar-30 23:28N 51°42' W 005°03'0 0.0
2018-Mar-30 22:55N 51°42' W 005°03'0 0.0
2018-Mar-30 22:28N 51°42' W 005°03'0 0.0
2018-Mar-30 21:55N 51°42' W 005°03'0 0.0
2018-Mar-30 21:30N 51°42' W 005°03'0 0.0
2018-Mar-30 21:00N 51°42' W 005°03'0 0.0
2018-Mar-30 20:30N 51°42' W 005°03'0 0.0
2018-Mar-30 20:00N 51°42' W 005°03'0 0.0
2018-Mar-30 19:30N 51°42' W 005°03'0 0.0
2018-Mar-30 18:59N 51°42' W 005°03'0 0.0
2018-Mar-30 18:29N 51°42' W 005°03'0 0.0
2018-Mar-30 17:53N 51°42' W 005°03'0 0.0
2018-Mar-30 17:29N 51°42' W 005°03'0 0.0
2018-Mar-30 16:49N 51°42' W 005°03'0 0.0
2018-Mar-30 16:19N 51°42' W 005°03'0 0.0
2018-Mar-30 15:58N 51°42' W 005°03'0 0.0
2018-Mar-30 15:22N 51°42' W 005°03'0 0.0
2018-Mar-30 14:58N 51°42' W 005°03'0 0.0
2018-Mar-30 14:30N 51°42' W 005°03'0 0.0
2018-Mar-30 14:00N 51°42' W 005°03'0 0.0
2018-Mar-30 13:30N 51°42' W 005°03'0 0.0
2018-Mar-30 13:00N 51°42' W 005°03'0 0.0
2018-Mar-30 12:30N 51°42' W 005°03'0 0.0
2018-Mar-30 11:59N 51°42' W 005°03'0 0.0
2018-Mar-30 11:29N 51°42' W 005°03'0 0.0
2018-Mar-30 10:59N 51°42' W 005°03'0 0.0
2018-Mar-30 10:29N 51°42' W 005°03'0 0.0
2018-Mar-30 09:59N 51°42' W 005°03'0 0.0
2018-Mar-30 09:25N 51°42' W 005°03'0 0.0
2018-Mar-30 08:55N 51°42' W 005°03'0 0.0
2018-Mar-30 08:25N 51°42' W 005°03'0 0.0
2018-Mar-30 07:58N 51°42' W 005°03'0 0.0
2018-Mar-30 07:30N 51°42' W 005°03'0 0.0
2018-Mar-30 07:00N 51°42' W 005°03'0 0.0
2018-Mar-30 06:30N 51°42' W 005°03'0 0.0
2018-Mar-30 06:00N 51°42' W 005°03'0 0.0
2018-Mar-30 05:30N 51°42' W 005°03'0 0.0
2018-Mar-30 04:59N 51°42' W 005°03'0 0.0
2018-Mar-30 04:29N 51°42' W 005°03'0 0.0
2018-Mar-30 03:59N 51°42' W 005°03'0 0.0
2018-Mar-30 03:29N 51°42' W 005°03'0 0.0
2018-Mar-30 02:58N 51°42' W 005°03'0 0.0
2018-Mar-30 02:28N 51°42' W 005°03'0 0.0
2018-Mar-30 01:58N 51°42' W 005°03'0 0.0
2018-Mar-30 01:28N 51°42' W 005°03'0 0.0
2018-Mar-30 00:58N 51°42' W 005°03'0 0.0
2018-Mar-30 00:30N 51°42' W 005°03'0 0.0
2018-Mar-29 23:57N 51°42' W 005°03'0 0.0
2018-Mar-29 23:30N 51°42' W 005°03'0 0.0
2018-Mar-29 23:00N 51°42' W 005°03'0 0.0
2018-Mar-29 22:30N 51°42' W 005°03'0 0.0
2018-Mar-29 21:59N 51°42' W 005°03'0 0.0
2018-Mar-29 21:26N 51°42' W 005°03'0 0.0
2018-Mar-29 20:59N 51°42' W 005°03'0 0.0
2018-Mar-29 20:29N 51°42' W 005°03'0 0.0
2018-Mar-29 19:52N 51°42' W 005°03'0 0.0
2018-Mar-29 19:28N 51°42' W 005°03'0 0.0
2018-Mar-29 18:55N 51°42' W 005°03'0 0.0
2018-Mar-29 18:28N 51°42' W 005°03'0 0.0
2018-Mar-29 17:58N 51°42' W 005°03'0 0.0
2018-Mar-29 17:30N 51°42' W 005°03'0 0.0
2018-Mar-29 16:51N 51°42' W 005°03'0 0.0
2018-Mar-29 16:21N 51°42' W 005°03'0 0.0
2018-Mar-29 16:00N 51°42' W 005°03'0 0.0
2018-Mar-29 15:30N 51°42' W 005°03'0 0.0
2018-Mar-29 14:56N 51°42' W 005°03'0 0.0
2018-Mar-29 14:29N 51°42' W 005°03'0 0.0
2018-Mar-29 13:59N 51°42' W 005°03'0 0.0
2018-Mar-29 13:29N 51°42' W 005°03'0 0.0
2018-Mar-29 12:58N 51°42' W 005°03'0 0.0
2018-Mar-29 12:28N 51°42' W 005°03'0 0.0
2018-Mar-29 11:58N 51°42' W 005°03'0 0.0
2018-Mar-29 11:28N 51°42' W 005°03'0 0.0
2018-Mar-29 10:58N 51°42' W 005°03'0 0.0
2018-Mar-29 10:24N 51°42' W 005°03'0 0.0
2018-Mar-29 10:00N 51°42' W 005°03'0 0.0
2018-Mar-29 09:30N 51°42' W 005°03'0 0.0
2018-Mar-29 09:00N 51°42' W 005°03'0 0.0
2018-Mar-29 08:29N 51°42' W 005°03'0 0.0
2018-Mar-29 07:59N 51°42' W 005°03'0 0.0
2018-Mar-29 07:20N 51°42' W 005°03'0 0.0
2018-Mar-29 06:59N 51°42' W 005°03'0 0.0
2018-Mar-29 06:29N 51°42' W 005°03'0 0.0
2018-Mar-29 05:55N 51°42' W 005°03'0 0.0
2018-Mar-29 05:28N 51°42' W 005°03'0 0.0
2018-Mar-29 04:55N 51°42' W 005°03'0 0.0
2018-Mar-29 04:28N 51°42' W 005°03'0 0.0
2018-Mar-29 04:01N 51°42' W 005°03'0 0.0
2018-Mar-29 03:27N 51°42' W 005°03'0 0.0
2018-Mar-29 03:00N 51°42' W 005°03'0 0.0
2018-Mar-29 02:27N 51°42' W 005°03'0 0.0
2018-Mar-29 02:00N 51°42' W 005°03'0 0.0
2018-Mar-29 01:26N 51°42' W 005°03'0 0.0
2018-Mar-29 00:59N 51°42' W 005°03'0 0.0
2018-Mar-29 00:29N 51°42' W 005°03'0 0.0
2018-Mar-28 23:59N 51°42' W 005°03'0 0.0
2018-Mar-28 23:29N 51°42' W 005°03'0 0.0
2018-Mar-28 22:58N 51°42' W 005°03'0 0.0
2018-Mar-28 22:28N 51°42' W 005°03'0 0.0
2018-Mar-28 21:55N 51°42' W 005°03'0 0.0
2018-Mar-28 21:28N 51°42' W 005°03'0 0.0
2018-Mar-28 21:01N 51°42' W 005°03'0 0.0
2018-Mar-28 20:30N 51°42' W 005°03'0 0.0
2018-Mar-28 20:00N 51°42' W 005°03'0 0.0
2018-Mar-28 19:30N 51°42' W 005°03'0 0.0
2018-Mar-28 19:00N 51°42' W 005°03'0 0.0
2018-Mar-28 18:29N 51°42' W 005°03'0 0.0
2018-Mar-28 17:56N 51°42' W 005°03'0 0.0
2018-Mar-28 17:30N 51°42' W 005°03'0 0.1
2018-Mar-28 17:00N 51°42' W 005°03'2 3.8
2018-Mar-28 16:29N 51°42' W 005°06'510.0
2018-Mar-28 16:00N 51°38' W 005°12'1 2.6
2018-Mar-28 15:30N 51°37' W 005°11'1 2.9
2018-Mar-28 15:00N 51°37' W 005°13'612.1
2018-Mar-28 14:30N 51°31' W 005°14'612.7
2018-Mar-28 14:00N 51°25' W 005°15'3 5.8
2018-Mar-28 13:30N 51°22' W 005°13'1 1.9
2018-Mar-28 12:58N 51°22' W 005°15'1 1.5
2018-Mar-28 12:30N 51°22' W 005°16'1 2.5
2018-Mar-28 12:00N 51°22' W 005°14'611.5
2018-Mar-28 11:30N 51°18' W 005°07'510.6
2018-Mar-28 11:00N 51°15' W 005°01'0 0.6
2018-Mar-28 10:30N 51°15' W 005°01'1 1.3
2018-Mar-28 10:00N 51°15' W 005°01'1 1.1
2018-Mar-28 09:30N 51°16' W 005°01'1 1.2
2018-Mar-28 09:00N 51°17' W 005°01'1 1.2
2018-Mar-28 08:30N 51°17' W 005°01'0 1.0
2018-Mar-28 08:00N 51°18' W 005°01'0 0.8
2018-Mar-28 07:30N 51°18' W 005°01'0 0.6
2018-Mar-28 07:00N 51°18' W 005°00'0 0.5
2018-Mar-28 06:30N 51°18' W 005°00'0 0.4
2018-Mar-28 06:00N 51°18' W 004°60'0 0.4
2018-Mar-28 05:30N 51°18' W 004°59'0 0.3
2018-Mar-28 05:00N 51°18' W 004°59'0 0.2
2018-Mar-28 04:30N 51°18' W 004°59'0 0.3
2018-Mar-28 04:00N 51°18' W 004°59'0 0.6
2018-Mar-28 03:29N 51°18' W 004°60'0 0.9
2018-Mar-28 02:59N 51°18' W 005°00'1 1.2
2018-Mar-28 02:30N 51°18' W 005°01'1 1.4
2018-Mar-28 02:00N 51°17' W 005°02'1 1.7
2018-Mar-28 01:30N 51°17' W 005°04'1 1.9
2018-Mar-28 01:00N 51°17' W 005°05'1 2.0
2018-Mar-28 00:30N 51°17' W 005°07'1 2.1
2018-Mar-27 23:58N 51°17' W 005°08'1 2.0
2018-Mar-27 23:30N 51°17' W 005°10'1 1.9
2018-Mar-27 23:00N 51°18' W 005°12'1 1.8
2018-Mar-27 22:20N 51°18' W 005°13'1 1.6
2018-Mar-27 21:58N 51°18' W 005°14'1 1.5
2018-Mar-27 21:30N 51°18' W 005°15'1 1.1
2018-Mar-27 20:53N 51°19' W 005°16'0 0.8
2018-Mar-27 20:30N 51°19' W 005°17'0 0.6
2018-Mar-27 19:59N 51°19' W 005°17'0 0.3
2018-Mar-27 19:30N 51°19' W 005°17'0 0.2
2018-Mar-27 19:00N 51°19' W 005°17'0 0.1
2018-Mar-27 18:30N 51°19' W 005°18'0 0.1
2018-Mar-27 17:57N 51°19' W 005°17'0 0.1
2018-Mar-27 17:30N 51°19' W 005°17'0 0.1
2018-Mar-27 17:00N 51°19' W 005°17'0 0.2
2018-Mar-27 16:30N 51°19' W 005°17'0 0.6
2018-Mar-27 16:00N 51°19' W 005°17'1 1.7
2018-Mar-27 15:30N 51°19' W 005°16'5 9.6
2018-Mar-27 15:00N 51°19' W 005°08'612.2
2018-Mar-27 14:30N 51°20' W 004°59'2 4.7
2018-Mar-27 14:00N 51°21' W 004°55'0 0.2
2018-Mar-27 13:30N 51°21' W 004°55'0 0.9
2018-Mar-27 13:00N 51°21' W 004°55'0 0.3
2018-Mar-27 12:30N 51°21' W 004°55'0 0.5
2018-Mar-27 12:00N 51°21' W 004°54'1 2.2
2018-Mar-27 11:30N 51°20' W 004°56'1 2.1
2018-Mar-27 11:00N 51°20' W 004°57'1 1.9
2018-Mar-27 10:30N 51°20' W 004°59'1 1.8
2018-Mar-27 10:00N 51°20' W 005°00'1 1.7
2018-Mar-27 09:30N 51°20' W 005°02'1 1.3
2018-Mar-27 09:00N 51°20' W 005°03'1 1.1
2018-Mar-27 08:30N 51°20' W 005°04'0 0.9
2018-Mar-27 07:57N 51°20' W 005°04'0 0.6
2018-Mar-27 07:30N 51°20' W 005°05'0 0.4
2018-Mar-27 07:00N 51°20' W 005°05'0 0.4
2018-Mar-27 06:30N 51°20' W 005°05'0 0.6
2018-Mar-27 06:00N 51°20' W 005°05'0 0.6
2018-Mar-27 05:30N 51°20' W 005°05'0 0.4
2018-Mar-27 05:00N 51°19' W 005°05'  
Track history (hours):
 
Tides and Currents Weather Stations Pressure Air Temp Water Temp Dewpoint Dewpoint Depression Visibility Wind Speed Wind Dir Waves Ship Positions

Falcon Nostos

Last reported at 2018-Apr-06 04:31 UTC. Time now 2018-Apr-20 02:57 UTC.
Position N 51°22' W 005°59'.
Warning: this ship's position is 13 days out of date.

Length 182 m; draft 10.4 m.

Type: Ship (hazmat cat D). MMSI: 636015281.

Date/timePositionNaut miles runAvg speedWind from/ knotsBaromVisibWave heightAir tempDewpointWater temp
2018-Apr-06 04:31N 51°22' W 005°59'0 9.5
2018-Apr-06 04:28N 51°23' W 005°58'5 9.9
2018-Apr-06 03:59N 51°25' W 005°51'810.3
2018-Apr-06 03:15N 51°29' W 005°41'310.7
2018-Apr-06 03:00N 51°30' W 005°38'610.9
2018-Apr-06 02:29N 51°33' W 005°30'511.1
2018-Apr-06 02:01N 51°36' W 005°23'611.1
2018-Apr-06 01:30N 51°38' W 005°15'5 9.2
2018-Apr-06 00:59N 51°41' W 005°09'5 9.8
2018-Apr-06 00:30N 51°42' W 005°01'1 1.6
2018-Apr-05 23:56N 51°42' W 004°60'0 0.0
2018-Apr-05 23:26N 51°42' W 004°60'0 0.0
2018-Apr-05 22:59N 51°42' W 004°60'0 0.0
2018-Apr-05 22:23N 51°42' W 004°60'0 0.0
2018-Apr-05 21:53N 51°42' W 004°60'0 0.0
2018-Apr-05 21:19N 51°42' W 004°60'0 0.0
2018-Apr-05 20:40N 51°42' W 004°60'0 0.0
2018-Apr-05 20:27N 51°42' W 004°60'0 0.0
2018-Apr-05 19:52N 51°42' W 004°60'0 0.0
2018-Apr-05 19:24N 51°42' W 004°60'0 0.0
2018-Apr-05 19:00N 51°42' W 004°60'0 0.0
2018-Apr-05 18:24N 51°42' W 004°60'0 0.0
2018-Apr-05 17:57N 51°42' W 004°60'0 0.0
2018-Apr-05 17:30N 51°42' W 004°60'0 0.0
2018-Apr-05 16:59N 51°42' W 004°60'0 0.0
2018-Apr-05 16:26N 51°42' W 004°60'0 0.0
2018-Apr-05 15:59N 51°42' W 004°60'0 0.0
2018-Apr-05 15:29N 51°42' W 004°60'0 0.0
2018-Apr-05 14:59N 51°42' W 004°60'0 0.0
2018-Apr-05 14:25N 51°42' W 004°60'0 0.0
2018-Apr-05 13:55N 51°42' W 004°60'0 0.0
2018-Apr-05 13:28N 51°42' W 004°60'0 0.0
2018-Apr-05 12:58N 51°42' W 004°60'0 0.0
2018-Apr-05 12:24N 51°42' W 004°60'0 0.0
2018-Apr-05 12:00N 51°42' W 004°60'0 0.0
2018-Apr-05 11:27N 51°42' W 004°60'0 0.0
2018-Apr-05 11:00N 51°42' W 004°60'0 0.0
2018-Apr-05 10:30N 51°42' W 004°60'0 0.0
2018-Apr-05 09:59N 51°42' W 004°60'0 0.0
2018-Apr-05 09:29N 51°42' W 004°60'0 0.0
2018-Apr-05 08:59N 51°42' W 004°60'0 0.0
2018-Apr-05 08:26N 51°42' W 004°60'0 0.0
2018-Apr-05 07:56N 51°42' W 004°60'0 0.0
2018-Apr-05 07:22N 51°42' W 004°60'0 0.0
2018-Apr-05 06:58N 51°42' W 004°60'0 0.0
2018-Apr-05 06:28N 51°42' W 004°60'0 0.0
2018-Apr-05 05:55N 51°42' W 004°60'0 0.0
2018-Apr-05 05:30N 51°42' W 004°60'0 0.0
2018-Apr-05 04:54N 51°42' W 004°60'0 0.0
2018-Apr-05 04:30N 51°42' W 004°60'0 0.0
2018-Apr-05 04:00N 51°42' W 004°60'0 0.0
2018-Apr-05 03:24N 51°42' W 004°60'0 0.0
2018-Apr-05 02:59N 51°42' W 004°60'0 0.0
2018-Apr-05 02:29N 51°42' W 004°60'0 0.0
2018-Apr-05 01:56N 51°42' W 004°60'0 0.0
2018-Apr-05 01:23N 51°42' W 004°60'0 0.0
2018-Apr-05 00:40N 51°42' W 004°60'0 0.0
2018-Apr-05 00:28N 51°42' W 004°60'0 0.0
2018-Apr-04 23:58N 51°42' W 004°60'0 0.0
2018-Apr-04 23:28N 51°42' W 004°60'0 0.0
2018-Apr-04 22:58N 51°42' W 004°60'0 0.0
2018-Apr-04 22:09N 51°42' W 004°60'0 0.0
2018-Apr-04 21:57N 51°42' W 004°60'0 0.0
2018-Apr-04 21:30N 51°42' W 004°60'0 0.0
2018-Apr-04 21:00N 51°42' W 004°60'0 0.0
2018-Apr-04 20:30N 51°42' W 004°60'0 0.0
2018-Apr-04 19:53N 51°42' W 004°60'0 0.0
2018-Apr-04 19:29N 51°42' W 004°60'0 0.0
2018-Apr-04 18:59N 51°42' W 004°60'0 0.0
2018-Apr-04 18:29N 51°42' W 004°60'0 0.0
2018-Apr-04 17:58N 51°42' W 004°60'0 0.0
2018-Apr-04 17:22N 51°42' W 004°60'0 0.0
2018-Apr-04 16:58N 51°42' W 004°60'0 0.0
2018-Apr-04 16:28N 51°42' W 004°60'0 0.0
2018-Apr-04 15:58N 51°42' W 004°60'0 0.0
2018-Apr-04 15:30N 51°42' W 004°60'0 0.0
2018-Apr-04 14:57N 51°42' W 004°60'0 0.0
2018-Apr-04 14:30N 51°42' W 004°60'0 0.0
2018-Apr-04 14:00N 51°42' W 004°60'0 0.0
2018-Apr-04 13:30N 51°42' W 004°60'0 0.0
2018-Apr-04 12:59N 51°42' W 004°60'0 0.0
2018-Apr-04 12:29N 51°42' W 004°60'0 0.0
2018-Apr-04 11:59N 51°42' W 004°60'0 0.0
2018-Apr-04 11:29N 51°42' W 004°60'0 0.0
2018-Apr-04 10:58N 51°42' W 004°60'0 0.0
2018-Apr-04 10:22N 51°42' W 004°60'0 0.0
2018-Apr-04 09:55N 51°42' W 004°60'0 0.0
2018-Apr-04 09:25N 51°42' W 004°60'0 0.0
2018-Apr-04 08:52N 51°42' W 004°60'0 0.0
2018-Apr-04 08:30N 51°42' W 004°60'0 0.0
2018-Apr-04 07:57N 51°42' W 004°60'0 0.0
2018-Apr-04 07:30N 51°42' W 004°60'0 0.0
2018-Apr-04 07:00N 51°42' W 004°60'0 0.0
2018-Apr-04 06:30N 51°42' W 004°60'0 0.0
2018-Apr-04 05:56N 51°42' W 004°60'0 0.0
2018-Apr-04 05:29N 51°42' W 004°60'0 0.0
2018-Apr-04 04:59N 51°42' W 004°60'0 0.0
2018-Apr-04 04:20N 51°42' W 004°60'0 0.0
2018-Apr-04 03:58N 51°42' W 004°60'0 0.0
2018-Apr-04 03:25N 51°42' W 004°60'0 0.0
2018-Apr-04 02:55N 51°42' W 004°60'0 0.0
2018-Apr-04 02:19N 51°42' W 004°60'0 0.0
2018-Apr-04 01:58N 51°42' W 004°60'0 0.0
2018-Apr-04 01:30N 51°42' W 004°60'0 0.0
2018-Apr-04 01:00N 51°42' W 004°60'0 0.0
2018-Apr-04 00:30N 51°42' W 004°60'0 0.0
2018-Apr-04 00:00N 51°42' W 004°60'0 0.0
2018-Apr-03 23:23N 51°42' W 004°60'0 0.0
2018-Apr-03 22:59N 51°42' W 004°60'0 0.0
2018-Apr-03 22:29N 51°42' W 004°60'0 0.0
2018-Apr-03 21:56N 51°42' W 004°60'0 0.0
2018-Apr-03 21:29N 51°42' W 004°60'0 0.0
2018-Apr-03 20:58N 51°42' W 004°60'0 0.0
2018-Apr-03 20:19N 51°42' W 004°60'0 0.0
2018-Apr-03 19:58N 51°42' W 004°60'0 0.0
2018-Apr-03 19:28N 51°42' W 004°60'0 0.0
2018-Apr-03 18:55N 51°42' W 004°60'0 0.0
2018-Apr-03 18:30N 51°42' W 004°60'0 0.0
2018-Apr-03 18:00N 51°42' W 004°60'0 0.0
2018-Apr-03 17:30N 51°42' W 004°60'0 0.0
2018-Apr-03 16:57N 51°42' W 004°60'0 0.0
2018-Apr-03 16:29N 51°42' W 004°60'0 0.0
2018-Apr-03 15:59N 51°42' W 004°60'0 0.0
2018-Apr-03 15:29N 51°42' W 004°60'0 0.0
2018-Apr-03 14:59N 51°42' W 004°60'0 0.0
2018-Apr-03 14:29N 51°42' W 004°60'0 0.0
2018-Apr-03 13:58N 51°42' W 004°60'0 0.0
2018-Apr-03 13:25N 51°42' W 004°60'0 0.0
2018-Apr-03 12:52N 51°42' W 004°60'0 0.0
2018-Apr-03 12:28N 51°42' W 004°60'0 0.0
2018-Apr-03 12:00N 51°42' W 004°60'0 0.0
2018-Apr-03 11:30N 51°42' W 004°60'0 0.0
2018-Apr-03 11:00N 51°42' W 004°60'0 0.0
2018-Apr-03 10:27N 51°42' W 004°60'0 0.0
2018-Apr-03 09:54N 51°42' W 004°60'0 0.0
2018-Apr-03 09:23N 51°42' W 004°60'0 0.0
2018-Apr-03 08:56N 51°42' W 004°60'0 0.0
2018-Apr-03 08:29N 51°42' W 004°60'0 0.0
2018-Apr-03 07:59N 51°42' W 004°60'0 0.0
2018-Apr-03 07:29N 51°42' W 004°60'0 0.0
2018-Apr-03 06:57N 51°42' W 004°60'0 0.0
2018-Apr-03 06:19N 51°42' W 004°60'0 0.0
2018-Apr-03 05:58N 51°42' W 004°60'0 0.0
2018-Apr-03 05:28N 51°42' W 004°60'0 0.0
2018-Apr-03 05:00N 51°42' W 004°60'0 0.1
2018-Apr-03 04:30N 51°42' W 004°60'1 1.9
2018-Apr-03 04:01N 51°42' W 005°01'1 1.5
2018-Apr-03 03:26N 51°42' W 005°03'0 0.0
2018-Apr-03 02:53N 51°42' W 005°03'0 0.0
2018-Apr-03 02:29N 51°42' W 005°03'0 0.0
2018-Apr-03 01:55N 51°42' W 005°03'0 0.0
2018-Apr-03 01:28N 51°42' W 005°03'0 0.0
2018-Apr-03 00:58N 51°42' W 005°03'0 0.0
2018-Apr-03 00:28N 51°42' W 005°03'0 0.0
2018-Apr-02 23:58N 51°42' W 005°03'0 0.0
2018-Apr-02 23:18N 51°42' W 005°03'0 0.0
2018-Apr-02 23:00N 51°42' W 005°03'0 0.0
2018-Apr-02 22:27N 51°42' W 005°03'0 0.0
2018-Apr-02 21:57N 51°42' W 005°03'0 0.0
2018-Apr-02 21:23N 51°42' W 005°03'0 0.0
2018-Apr-02 20:58N 51°42' W 005°03'0 0.0
2018-Apr-02 20:29N 51°42' W 005°03'0 0.0
2018-Apr-02 19:59N 51°42' W 005°03'0 0.0
2018-Apr-02 19:29N 51°42' W 005°03'0 0.0
2018-Apr-02 18:52N 51°42' W 005°03'0 0.0
2018-Apr-02 18:19N 51°42' W 005°03'0 0.0
2018-Apr-02 17:55N 51°42' W 005°03'0 0.0
2018-Apr-02 17:25N 51°42' W 005°03'0 0.0
2018-Apr-02 16:57N 51°42' W 005°03'0 0.0
2018-Apr-02 16:27N 51°42' W 005°03'0 0.0
2018-Apr-02 16:00N 51°42' W 005°03'0 0.0
2018-Apr-02 15:27N 51°42' W 005°03'0 0.0
2018-Apr-02 15:00N 51°42' W 005°03'0 0.0
2018-Apr-02 14:29N 51°42' W 005°03'0 0.0
2018-Apr-02 13:59N 51°42' W 005°03'0 0.0
2018-Apr-02 13:29N 51°42' W 005°03'0 0.0
2018-Apr-02 12:59N 51°42' W 005°03'0 0.0
2018-Apr-02 12:29N 51°42' W 005°03'0 0.0
2018-Apr-02 11:58N 51°42' W 005°03'0 0.0
2018-Apr-02 11:22N 51°42' W 005°03'0 0.0
2018-Apr-02 10:55N 51°42' W 005°03'0 0.0
2018-Apr-02 10:28N 51°42' W 005°03'0 0.0
2018-Apr-02 10:00N 51°42' W 005°03'0 0.0
2018-Apr-02 09:30N 51°42' W 005°03'0 0.0
2018-Apr-02 09:00N 51°42' W 005°03'0 0.0
2018-Apr-02 08:30N 51°42' W 005°03'0 0.0
2018-Apr-02 08:00N 51°42' W 005°03'0 0.0
2018-Apr-02 07:29N 51°42' W 005°03'0 0.0
2018-Apr-02 06:59N 51°42' W 005°03'0 0.0
2018-Apr-02 06:29N 51°42' W 005°03'0 0.0
2018-Apr-02 05:59N 51°42' W 005°03'0 0.0
2018-Apr-02 05:26N 51°42' W 005°03'0 0.0
2018-Apr-02 04:55N 51°42' W 005°03'0 0.0
2018-Apr-02 04:28N 51°42' W 005°03'0 0.0
2018-Apr-02 03:55N 51°42' W 005°03'0 0.0
2018-Apr-02 03:30N 51°42' W 005°03'0 0.7
2018-Apr-02 02:58N 51°42' W 005°03'0 0.0
2018-Apr-02 02:28N 51°42' W 005°03'0 0.0
2018-Apr-02 01:44N 51°42' W 005°03'0 0.0
2018-Apr-02 01:26N 51°42' W 005°03'0 0.0
2018-Apr-02 00:59N 51°42' W 005°03'0 0.0
2018-Apr-02 00:26N 51°42' W 005°03'0 0.0
2018-Apr-01 23:58N 51°42' W 005°03'0 0.0
2018-Apr-01 23:25N 51°42' W 005°03'0 0.0
2018-Apr-01 22:52N 51°42' W 005°03'0 0.0
2018-Apr-01 22:28N 51°42' W 005°03'0 0.0
2018-Apr-01 21:57N 51°42' W 005°03'0 0.0
2018-Apr-01 21:30N 51°42' W 005°03'0 0.0
2018-Apr-01 20:54N 51°42' W 005°03'0 0.0
2018-Apr-01 20:30N 51°42' W 005°03'0 0.0
2018-Apr-01 20:00N 51°42' W 005°03'0 0.0
2018-Apr-01 19:29N 51°42' W 005°03'0 0.0
2018-Apr-01 18:59N 51°42' W 005°03'0 0.0
2018-Apr-01 18:23N 51°42' W 005°03'0 0.0
2018-Apr-01 17:59N 51°42' W 005°03'0 0.0
2018-Apr-01 17:26N 51°42' W 005°03'0 0.0
2018-Apr-01 16:52N 51°42' W 005°03'0 0.0
2018-Apr-01 16:28N 51°42' W 005°03'0 0.0
2018-Apr-01 15:52N 51°42' W 005°03'0 0.0
2018-Apr-01 15:25N 51°42' W 005°03'0 0.0
2018-Apr-01 14:57N 51°42' W 005°03'0 0.0
2018-Apr-01 14:30N 51°42' W 005°03'0 0.0
2018-Apr-01 14:00N 51°42' W 005°03'0 0.0
2018-Apr-01 13:30N 51°42' W 005°03'0 0.0
2018-Apr-01 12:57N 51°42' W 005°03'0 0.0
2018-Apr-01 12:29N 51°42' W 005°03'0 0.0
2018-Apr-01 11:56N 51°42' W 005°03'0 0.0
2018-Apr-01 11:26N 51°42' W 005°03'0 0.0
2018-Apr-01 10:56N 51°42' W 005°03'0 0.0
2018-Apr-01 10:26N 51°42' W 005°03'0 0.0
2018-Apr-01 09:58N 51°42' W 005°03'0 0.0
2018-Apr-01 09:28N 51°42' W 005°03'0 0.0
2018-Apr-01 08:49N 51°42' W 005°03'0 0.0
2018-Apr-01 08:28N 51°42' W 005°03'0 0.0
2018-Apr-01 07:57N 51°42' W 005°03'0 0.0
2018-Apr-01 07:30N 51°42' W 005°03'0 0.0
2018-Apr-01 06:54N 51°42' W 005°03'0 0.0
2018-Apr-01 06:30N 51°42' W 005°03'0 0.0
2018-Apr-01 05:53N 51°42' W 005°03'0 0.0
2018-Apr-01 05:29N 51°42' W 005°03'0 0.0
2018-Apr-01 04:59N 51°42' W 005°03'0 0.0
2018-Apr-01 04:23N 51°42' W 005°03'0 0.0
2018-Apr-01 03:53N 51°42' W 005°03'0 0.0
2018-Apr-01 03:25N 51°42' W 005°03'0 0.0
2018-Apr-01 02:55N 51°42' W 005°03'0 0.0
2018-Apr-01 02:28N 51°42' W 005°03'0 0.0
2018-Apr-01 01:58N 51°42' W 005°03'0 0.0
2018-Apr-01 01:28N 51°42' W 005°03'0 0.0
2018-Apr-01 00:57N 51°42' W 005°03'0 0.0
2018-Apr-01 00:12N 51°42' W 005°03'0 0.0
2018-Apr-01 00:00N 51°42' W 005°03'0 0.0
2018-Mar-31 23:30N 51°42' W 005°03'0 0.0
2018-Mar-31 22:57N 51°42' W 005°03'0 0.0
2018-Mar-31 22:26N 51°42' W 005°03'0 0.0
2018-Mar-31 21:35N 51°42' W 005°03'0 0.1
2018-Mar-31 21:29N 51°42' W 005°03'0 0.0
2018-Mar-31 20:59N 51°42' W 005°03'0 0.0
2018-Mar-31 20:22N 51°42' W 005°03'0 0.0
2018-Mar-31 19:55N 51°42' W 005°03'0 0.0
2018-Mar-31 19:28N 51°42' W 005°03'0 0.0
2018-Mar-31 18:55N 51°42' W 005°03'0 0.0
2018-Mar-31 18:25N 51°42' W 005°03'0 0.0
2018-Mar-31 17:54N 51°42' W 005°03'0 0.0
2018-Mar-31 17:27N 51°42' W 005°03'0 0.0
2018-Mar-31 17:00N 51°42' W 005°03'0 0.0
2018-Mar-31 16:30N 51°42' W 005°03'0 0.0
2018-Mar-31 15:57N 51°42' W 005°03'0 0.0
2018-Mar-31 15:29N 51°42' W 005°03'0 0.0
2018-Mar-31 14:56N 51°42' W 005°03'0 0.0
2018-Mar-31 14:25N 51°42' W 005°03'0 0.0
2018-Mar-31 13:56N 51°42' W 005°03'0 0.0
2018-Mar-31 13:25N 51°42' W 005°03'0 0.0
2018-Mar-31 12:52N 51°42' W 005°03'0 0.0
2018-Mar-31 12:28N 51°42' W 005°03'0 0.0
2018-Mar-31 11:58N 51°42' W 005°03'0 0.0
2018-Mar-31 11:28N 51°42' W 005°03'0 0.0
2018-Mar-31 11:00N 51°42' W 005°03'0 0.0
2018-Mar-31 10:30N 51°42' W 005°03'0 0.0
2018-Mar-31 09:57N 51°42' W 005°03'0 0.0
2018-Mar-31 09:27N 51°42' W 005°03'0 0.0
2018-Mar-31 08:59N 51°42' W 005°03'0 0.0
2018-Mar-31 08:29N 51°42' W 005°03'0 0.0
2018-Mar-31 07:59N 51°42' W 005°03'0 0.0
2018-Mar-31 07:26N 51°42' W 005°03'0 0.0
2018-Mar-31 06:59N 51°42' W 005°03'0 0.0
2018-Mar-31 06:28N 51°42' W 005°03'0 0.0
2018-Mar-31 05:55N 51°42' W 005°03'0 0.0
2018-Mar-31 05:28N 51°42' W 005°03'0 0.0
2018-Mar-31 04:58N 51°42' W 005°03'0 0.0
2018-Mar-31 04:27N 51°42' W 005°03'0 0.0
2018-Mar-31 04:00N 51°42' W 005°03'0 0.0
2018-Mar-31 03:30N 51°42' W 005°03'0 0.0
2018-Mar-31 03:00N 51°42' W 005°03'0 0.0
2018-Mar-31 02:30N 51°42' W 005°03'0 0.0
2018-Mar-31 01:59N 51°42' W 005°03'0 0.0
2018-Mar-31 01:26N 51°42' W 005°03'0 0.0
2018-Mar-31 00:59N 51°42' W 005°03'0 0.0
2018-Mar-31 00:29N 51°42' W 005°03'0 0.0
2018-Mar-30 23:59N 51°42' W 005°03'0 0.0
2018-Mar-30 23:28N 51°42' W 005°03'0 0.0
2018-Mar-30 22:55N 51°42' W 005°03'0 0.0
2018-Mar-30 22:28N 51°42' W 005°03'0 0.0
2018-Mar-30 21:55N 51°42' W 005°03'0 0.0
2018-Mar-30 21:30N 51°42' W 005°03'0 0.0
2018-Mar-30 21:00N 51°42' W 005°03'0 0.0
2018-Mar-30 20:30N 51°42' W 005°03'0 0.0
2018-Mar-30 20:00N 51°42' W 005°03'0 0.0
2018-Mar-30 19:30N 51°42' W 005°03'0 0.0
2018-Mar-30 18:59N 51°42' W 005°03'0 0.0
2018-Mar-30 18:29N 51°42' W 005°03'0 0.0
2018-Mar-30 17:53N 51°42' W 005°03'0 0.0
2018-Mar-30 17:29N 51°42' W 005°03'0 0.0
2018-Mar-30 16:49N 51°42' W 005°03'0 0.0
2018-Mar-30 16:19N 51°42' W 005°03'0 0.0
2018-Mar-30 15:58N 51°42' W 005°03'0 0.0
2018-Mar-30 15:22N 51°42' W 005°03'0 0.0
2018-Mar-30 14:58N 51°42' W 005°03'0 0.0
2018-Mar-30 14:30N 51°42' W 005°03'0 0.0
2018-Mar-30 14:00N 51°42' W 005°03'0 0.0
2018-Mar-30 13:30N 51°42' W 005°03'0 0.0
2018-Mar-30 13:00N 51°42' W 005°03'0 0.0
2018-Mar-30 12:30N 51°42' W 005°03'0 0.0
2018-Mar-30 11:59N 51°42' W 005°03'0 0.0
2018-Mar-30 11:29N 51°42' W 005°03'0 0.0
2018-Mar-30 10:59N 51°42' W 005°03'0 0.0
2018-Mar-30 10:29N 51°42' W 005°03'0 0.0
2018-Mar-30 09:59N 51°42' W 005°03'0 0.0
2018-Mar-30 09:25N 51°42' W 005°03'0 0.0
2018-Mar-30 08:55N 51°42' W 005°03'0 0.0
2018-Mar-30 08:25N 51°42' W 005°03'0 0.0
2018-Mar-30 07:58N 51°42' W 005°03'0 0.0
2018-Mar-30 07:30N 51°42' W 005°03'0 0.0
2018-Mar-30 07:00N 51°42' W 005°03'0 0.0
2018-Mar-30 06:30N 51°42' W 005°03'0 0.0
2018-Mar-30 06:00N 51°42' W 005°03'0 0.0
2018-Mar-30 05:30N 51°42' W 005°03'0 0.0
2018-Mar-30 04:59N 51°42' W 005°03'0 0.0
2018-Mar-30 04:29N 51°42' W 005°03'0 0.0
2018-Mar-30 03:59N 51°42' W 005°03'0 0.0
2018-Mar-30 03:29N 51°42' W 005°03'0 0.0
2018-Mar-30 02:58N 51°42' W 005°03'0 0.0
2018-Mar-30 02:28N 51°42' W 005°03'0 0.0
2018-Mar-30 01:58N 51°42' W 005°03'0 0.0
2018-Mar-30 01:28N 51°42' W 005°03'0 0.0
2018-Mar-30 00:58N 51°42' W 005°03'0 0.0
2018-Mar-30 00:30N 51°42' W 005°03'0 0.0
2018-Mar-29 23:57N 51°42' W 005°03'0 0.0
2018-Mar-29 23:30N 51°42' W 005°03'0 0.0
2018-Mar-29 23:00N 51°42' W 005°03'0 0.0
2018-Mar-29 22:30N 51°42' W 005°03'0 0.0
2018-Mar-29 21:59N 51°42' W 005°03'0 0.0
2018-Mar-29 21:26N 51°42' W 005°03'0 0.0
2018-Mar-29 20:59N 51°42' W 005°03'0 0.0
2018-Mar-29 20:29N 51°42' W 005°03'0 0.0
2018-Mar-29 19:52N 51°42' W 005°03'0 0.0
2018-Mar-29 19:28N 51°42' W 005°03'0 0.0
2018-Mar-29 18:55N 51°42' W 005°03'0 0.0
2018-Mar-29 18:28N 51°42' W 005°03'0 0.0
2018-Mar-29 17:58N 51°42' W 005°03'0 0.0
2018-Mar-29 17:30N 51°42' W 005°03'0 0.0
2018-Mar-29 16:51N 51°42' W 005°03'0 0.0
2018-Mar-29 16:21N 51°42' W 005°03'0 0.0
2018-Mar-29 16:00N 51°42' W 005°03'0 0.0
2018-Mar-29 15:30N 51°42' W 005°03'0 0.0
2018-Mar-29 14:56N 51°42' W 005°03'0 0.0
2018-Mar-29 14:29N 51°42' W 005°03'0 0.0
2018-Mar-29 13:59N 51°42' W 005°03'0 0.0
2018-Mar-29 13:29N 51°42' W 005°03'0 0.0
2018-Mar-29 12:58N 51°42' W 005°03'0 0.0
2018-Mar-29 12:28N 51°42' W 005°03'0 0.0
2018-Mar-29 11:58N 51°42' W 005°03'0 0.0
2018-Mar-29 11:28N 51°42' W 005°03'0 0.0
2018-Mar-29 10:58N 51°42' W 005°03'0 0.0
2018-Mar-29 10:24N 51°42' W 005°03'0 0.0
2018-Mar-29 10:00N 51°42' W 005°03'0 0.0
2018-Mar-29 09:30N 51°42' W 005°03'0 0.0
2018-Mar-29 09:00N 51°42' W 005°03'0 0.0
2018-Mar-29 08:29N 51°42' W 005°03'0 0.0
2018-Mar-29 07:59N 51°42' W 005°03'0 0.0
2018-Mar-29 07:20N 51°42' W 005°03'0 0.0
2018-Mar-29 06:59N 51°42' W 005°03'0 0.0
2018-Mar-29 06:29N 51°42' W 005°03'0 0.0
2018-Mar-29 05:55N 51°42' W 005°03'0 0.0
2018-Mar-29 05:28N 51°42' W 005°03'0 0.0
2018-Mar-29 04:55N 51°42' W 005°03'0 0.0
2018-Mar-29 04:28N 51°42' W 005°03'0 0.0
2018-Mar-29 04:01N 51°42' W 005°03'0 0.0
2018-Mar-29 03:27N 51°42' W 005°03'0 0.0
2018-Mar-29 03:00N 51°42' W 005°03'0 0.0
2018-Mar-29 02:27N 51°42' W 005°03'0 0.0
2018-Mar-29 02:00N 51°42' W 005°03'0 0.0
2018-Mar-29 01:26N 51°42' W 005°03'0 0.0
2018-Mar-29 00:59N 51°42' W 005°03'0 0.0
2018-Mar-29 00:29N 51°42' W 005°03'0 0.0
2018-Mar-28 23:59N 51°42' W 005°03'0 0.0
2018-Mar-28 23:29N 51°42' W 005°03'0 0.0
2018-Mar-28 22:58N 51°42' W 005°03'0 0.0
2018-Mar-28 22:28N 51°42' W 005°03'0 0.0
2018-Mar-28 21:55N 51°42' W 005°03'0 0.0
2018-Mar-28 21:28N 51°42' W 005°03'0 0.0
2018-Mar-28 21:01N 51°42' W 005°03'0 0.0
2018-Mar-28 20:30N 51°42' W 005°03'0 0.0
2018-Mar-28 20:00N 51°42' W 005°03'0 0.0
2018-Mar-28 19:30N 51°42' W 005°03'0 0.0
2018-Mar-28 19:00N 51°42' W 005°03'0 0.0
2018-Mar-28 18:29N 51°42' W 005°03'0 0.0
2018-Mar-28 17:56N 51°42' W 005°03'0 0.0
2018-Mar-28 17:30N 51°42' W 005°03'0 0.1
2018-Mar-28 17:00N 51°42' W 005°03'2 3.8
2018-Mar-28 16:29N 51°42' W 005°06'510.0
2018-Mar-28 16:00N 51°38' W 005°12'1 2.6
2018-Mar-28 15:30N 51°37' W 005°11'1 2.9
2018-Mar-28 15:00N 51°37' W 005°13'612.1
2018-Mar-28 14:30N 51°31' W 005°14'612.7
2018-Mar-28 14:00N 51°25' W 005°15'3 5.8
2018-Mar-28 13:30N 51°22' W 005°13'1 1.9
2018-Mar-28 12:58N 51°22' W 005°15'1 1.5
2018-Mar-28 12:30N 51°22' W 005°16'1 2.5
2018-Mar-28 12:00N 51°22' W 005°14'611.5
2018-Mar-28 11:30N 51°18' W 005°07'510.6
2018-Mar-28 11:00N 51°15' W 005°01'0 0.6
2018-Mar-28 10:30N 51°15' W 005°01'1 1.3
2018-Mar-28 10:00N 51°15' W 005°01'1 1.1
2018-Mar-28 09:30N 51°16' W 005°01'1 1.2
2018-Mar-28 09:00N 51°17' W 005°01'1 1.2
2018-Mar-28 08:30N 51°17' W 005°01'0 1.0
2018-Mar-28 08:00N 51°18' W 005°01'0 0.8
2018-Mar-28 07:30N 51°18' W 005°01'0 0.6
2018-Mar-28 07:00N 51°18' W 005°00'0 0.5
2018-Mar-28 06:30N 51°18' W 005°00'0 0.4
2018-Mar-28 06:00N 51°18' W 004°60'0 0.4
2018-Mar-28 05:30N 51°18' W 004°59'0 0.3
2018-Mar-28 05:00N 51°18' W 004°59'0 0.2
2018-Mar-28 04:30N 51°18' W 004°59'0 0.3
2018-Mar-28 04:00N 51°18' W 004°59'0 0.6
2018-Mar-28 03:29N 51°18' W 004°60'0 0.9
2018-Mar-28 02:59N 51°18' W 005°00'1 1.2
2018-Mar-28 02:30N 51°18' W 005°01'1 1.4
2018-Mar-28 02:00N 51°17' W 005°02'1 1.7
2018-Mar-28 01:30N 51°17' W 005°04'1 1.9
2018-Mar-28 01:00N 51°17' W 005°05'1 2.0
2018-Mar-28 00:30N 51°17' W 005°07'1 2.1
2018-Mar-27 23:58N 51°17' W 005°08'1 2.0
2018-Mar-27 23:30N 51°17' W 005°10'1 1.9
2018-Mar-27 23:00N 51°18' W 005°12'1 1.8
2018-Mar-27 22:20N 51°18' W 005°13'1 1.6
2018-Mar-27 21:58N 51°18' W 005°14'1 1.5
2018-Mar-27 21:30N 51°18' W 005°15'1 1.1
2018-Mar-27 20:53N 51°19' W 005°16'0 0.8
2018-Mar-27 20:30N 51°19' W 005°17'0 0.6
2018-Mar-27 19:59N 51°19' W 005°17'0 0.3
2018-Mar-27 19:30N 51°19' W 005°17'0 0.2
2018-Mar-27 19:00N 51°19' W 005°17'0 0.1
2018-Mar-27 18:30N 51°19' W 005°18'0 0.1
2018-Mar-27 17:57N 51°19' W 005°17'0 0.1
2018-Mar-27 17:30N 51°19' W 005°17'0 0.1
2018-Mar-27 17:00N 51°19' W 005°17'0 0.2
2018-Mar-27 16:30N 51°19' W 005°17'0 0.6
2018-Mar-27 16:00N 51°19' W 005°17'1 1.7
2018-Mar-27 15:30N 51°19' W 005°16'5 9.6
2018-Mar-27 15:00N 51°19' W 005°08'612.2
2018-Mar-27 14:30N 51°20' W 004°59'2 4.7
2018-Mar-27 14:00N 51°21' W 004°55'0 0.2
2018-Mar-27 13:30N 51°21' W 004°55'0 0.9
2018-Mar-27 13:00N 51°21' W 004°55'0 0.3
2018-Mar-27 12:30N 51°21' W 004°55'0 0.5
2018-Mar-27 12:00N 51°21' W 004°54'1 2.2
2018-Mar-27 11:30N 51°20' W 004°56'1 2.1
2018-Mar-27 11:00N 51°20' W 004°57'1 1.9
2018-Mar-27 10:30N 51°20' W 004°59'1 1.8
2018-Mar-27 10:00N 51°20' W 005°00'1 1.7
2018-Mar-27 09:30N 51°20' W 005°02'1 1.3
2018-Mar-27 09:00N 51°20' W 005°03'1 1.1
2018-Mar-27 08:30N 51°20' W 005°04'0 0.9
2018-Mar-27 07:57N 51°20' W 005°04'0 0.6
2018-Mar-27 07:30N 51°20' W 005°05'0 0.4
2018-Mar-27 07:00N 51°20' W 005°05'0 0.4
2018-Mar-27 06:30N 51°20' W 005°05'0 0.6
2018-Mar-27 06:00N 51°20' W 005°05'0 0.6
2018-Mar-27 05:30N 51°20' W 005°05'0 0.4
2018-Mar-27 05:00N 51°19' W 005°05'  

Dump ship's entire track history